Time;durP1;ratioP1;P1;durP2;ratioP2;P2;SDS_P1;SDS_P2;PMS_P1;PMS_P2;Temp;Humidity;BMP_temperature;BMP_pressure;BME280_temperature;BME280_humidity;BME280_pressure;Samples;Min_cycle;Max_cycle;Signal;HPM_P1;HPM_P2
2021/06/02 00:02:22;;;;;;;6.08;3.22;;;;;;;11.75;56.42;99566.72;1705126;82;20978;-69
2021/06/02 00:04:55;;;;;;;5.95;3.30;;;;;;;11.74;56.47;99564.16;1704046;83;21025;-69
2021/06/02 00:07:25;;;;;;;6.08;3.45;;;;;;;11.73;56.46;99561.17;1703366;83;21053;-69
2021/06/02 00:09:53;;;;;;;7.65;3.17;;;;;;;11.73;56.36;99562.50;1703559;83;21587;-69
2021/06/02 00:12:22;;;;;;;5.53;2.95;;;;;;;11.73;56.33;99569.95;1705838;82;21358;-69
2021/06/02 00:14:50;;;;;;;5.78;3.25;;;;;;;11.73;56.34;99570.45;1702198;82;21009;-69
2021/06/02 00:17:17;;;;;;;5.58;3.17;;;;;;;11.73;56.30;99566.47;1700068;83;21030;-69
2021/06/02 00:19:45;;;;;;;6.97;3.22;;;;;;;11.72;56.36;99570.08;1703640;82;21608;-69
2021/06/02 00:22:12;;;;;;;4.70;3.10;;;;;;;11.70;56.29;99562.72;1703524;83;21017;-69
2021/06/02 00:24:40;;;;;;;5.53;2.80;;;;;;;11.69;56.41;99559.70;1703727;83;21072;-69
2021/06/02 00:27:12;;;;;;;3.85;2.85;;;;;;;11.69;56.46;99562.35;1701245;83;20954;-69
2021/06/02 00:29:40;;;;;;;5.25;2.95;;;;;;;11.67;56.60;99551.88;1699518;83;21033;-69
2021/06/02 00:32:08;;;;;;;8.60;3.42;;;;;;;11.63;56.81;99552.60;1704545;82;21537;-70
2021/06/02 00:34:35;;;;;;;5.87;3.10;;;;;;;11.62;56.84;99552.27;1701609;83;21147;-69
2021/06/02 00:37:04;;;;;;;4.22;2.92;;;;;;;11.61;56.79;99545.73;1700733;83;22396;-69
2021/06/02 00:39:31;;;;;;;5.30;3.00;;;;;;;11.61;56.83;99553.68;1698169;83;20950;-70
2021/06/02 00:41:58;;;;;;;4.80;3.02;;;;;;;11.57;56.70;99549.13;1708581;82;20993;-70
2021/06/02 00:44:24;;;;;;;4.85;3.05;;;;;;;11.56;56.87;99551.87;1701298;83;21020;-70
2021/06/02 00:46:55;;;;;;;6.37;3.52;;;;;;;11.53;56.92;99550.31;1700704;83;21076;-70
2021/06/02 00:49:25;;;;;;;5.58;3.70;;;;;;;11.50;57.06;99543.94;1705411;82;21072;-69
2021/06/02 00:51:59;;;;;;;5.95;3.08;;;;;;;11.50;57.11;99544.44;1703088;83;21033;-70
2021/06/02 00:54:33;;;;;;;7.05;3.30;;;;;;;11.47;57.05;99537.08;1704257;82;21045;-71
2021/06/02 00:57:15;;;;;;;4.90;3.08;;;;;;;11.49;57.03;99535.63;1705341;83;21247;-70
2021/06/02 00:59:59;;;;;;;4.47;3.05;;;;;;;11.49;57.01;99534.30;1699339;83;21021;-70
2021/06/02 01:02:27;;;;;;;;;;;;;;;11.46;57.10;99529.26;1698424;83;21334;-70
2021/06/02 01:04:56;;;;;;;5.75;3.35;;;;;;;11.46;57.19;99537.20;1709583;82;20145;-70
2021/06/02 01:07:23;;;;;;;6.85;3.47;;;;;;;11.42;57.32;99532.62;1703359;83;21053;-70
2021/06/02 01:09:52;;;;;;;4.90;3.10;;;;;;;11.41;57.37;99533.57;1704668;83;21044;-70
2021/06/02 01:12:23;;;;;;;5.03;3.25;;;;;;;11.43;57.33;99530.80;1705437;82;21647;-70
2021/06/02 01:14:56;;;;;;;5.70;3.10;;;;;;;11.43;57.38;99522.39;1704373;82;21618;-70
2021/06/02 01:17:26;;;;;;;5.20;3.10;;;;;;;11.42;57.50;99527.78;1701972;83;21041;-70
2021/06/02 01:19:55;;;;;;;4.85;3.70;;;;;;;11.43;57.44;99521.53;1703710;83;21005;-71
2021/06/02 01:22:22;;;;;;;10.03;3.80;;;;;;;11.42;57.37;99525.14;1703486;82;20997;-71
2021/06/02 01:24:48;;;;;;;6.10;3.33;;;;;;;11.43;57.35;99517.56;1704632;82;21013;-71
2021/06/02 01:27:16;;;;;;;5.65;3.50;;;;;;;11.45;57.39;99513.00;1703506;83;21485;-71
2021/06/02 01:29:48;;;;;;;7.42;3.67;;;;;;;11.45;57.45;99518.30;1702066;83;21648;-71
2021/06/02 01:32:55;;;;;;;7.00;3.47;;;;;;;11.44;57.39;99518.76;1704046;83;21001;-71
2021/06/02 01:35:51;;;;;;;6.40;3.42;;;;;;;11.44;57.36;99523.22;1702321;83;21707;-69
2021/06/02 01:38:52;;;;;;;6.12;3.37;;;;;;;11.42;57.42;99525.14;1706371;83;21045;-70
2021/06/02 01:41:52;;;;;;;4.60;3.25;;;;;;;11.37;57.60;99525.97;1701376;83;21017;-70
2021/06/02 01:45:05;;;;;;;7.87;3.55;;;;;;;11.33;57.82;99520.09;1704476;82;21469;-70
2021/06/02 01:48:04;;;;;;;6.50;3.37;;;;;;;11.29;58.04;99532.73;1670363;83;21021;-71
2021/06/02 01:51:05;;;;;;;9.43;3.47;;;;;;;11.24;58.10;99532.23;1705786;82;21056;-70
2021/06/02 01:54:04;;;;;;;6.50;3.00;;;;;;;11.28;58.32;99532.36;1703920;83;21510;-69
2021/06/02 01:57:20;;;;;;;5.75;3.47;;;;;;;11.39;58.07;99521.42;1703685;83;21033;-70
2021/06/02 02:00:17;;;;;;;5.25;3.33;;;;;;;11.35;58.03;99535.86;1702545;82;21101;-70
2021/06/02 02:03:39;;;;;;;5.70;3.42;;;;;;;11.30;58.15;99530.45;1701573;83;21037;-70
2021/06/02 02:06:37;;;;;;;5.25;3.33;;;;;;;11.27;58.26;99528.51;1702603;83;21017;-70
2021/06/02 02:09:31;;;;;;;5.53;3.40;;;;;;;11.22;58.33;99535.47;1702566;83;21037;-70
2021/06/02 02:12:32;;;;;;;4.15;3.10;;;;;;;11.20;58.48;99540.52;1700968;83;21033;-70
2021/06/02 02:15:27;;;;;;;5.87;3.30;;;;;;;11.17;58.63;99519.59;1706081;82;21125;-69
2021/06/02 02:18:27;;;;;;;8.23;3.65;;;;;;;11.18;58.80;99541.10;1704701;83;21024;-71
2021/06/02 02:21:30;;;;;;;5.03;2.98;;;;;;;11.31;58.61;99536.57;1725344;82;21541;-71
2021/06/02 02:24:14;;;;;;;6.10;3.58;;;;;;;11.29;58.38;99539.34;1709789;82;21025;-69
2021/06/02 02:27:10;;;;;;;6.40;3.80;;;;;;;11.24;58.62;99534.88;1705229;82;21060;-71
2021/06/02 02:29:57;;;;;;;5.67;3.45;;;;;;;11.21;58.80;99540.89;1703254;83;21482;-70
2021/06/02 02:32:57;;;;;;;4.55;3.20;;;;;;;11.17;58.89;99533.66;1715731;83;21496;-71
2021/06/02 02:35:50;;;;;;;5.60;3.22;;;;;;;11.17;58.93;99530.17;1715160;82;21065;-70
2021/06/02 02:38:53;;;;;;;7.20;3.00;;;;;;;11.13;59.20;99546.27;1730743;82;20993;-70
2021/06/02 02:41:43;;;;;;;8.90;3.50;;;;;;;11.29;58.98;99539.80;1717947;83;21616;-70
2021/06/02 02:44:54;;;;;;;5.05;3.40;;;;;;;11.27;59.12;99541.25;1708237;83;21501;-71
2021/06/02 02:47:42;;;;;;;5.72;3.40;;;;;;;11.25;58.94;99540.55;1690323;83;21037;-70
2021/06/02 02:50:25;;;;;;;6.47;3.37;;;;;;;11.20;59.00;99551.97;1705213;83;21029;-70
2021/06/02 02:53:15;;;;;;;5.03;3.45;;;;;;;11.21;59.06;99550.15;1707619;82;21044;-70
2021/06/02 02:55:41;;;;;;;6.70;3.17;;;;;;;11.19;59.14;99550.73;1717407;83;21017;-70
2021/06/02 02:58:25;;;;;;;5.95;3.17;;;;;;;11.18;59.24;99553.88;1688728;83;21064;-70
2021/06/02 03:01:25;;;;;;;4.17;2.98;;;;;;;11.28;59.13;99558.00;1655077;85;21604;-71
2021/06/02 03:04:10;;;;;;;6.75;3.42;;;;;;;11.37;58.64;99573.63;1736781;82;21017;-71
2021/06/02 03:06:44;;;;;;;8.90;3.42;;;;;;;11.31;58.56;99563.88;1716861;82;21489;-71
2021/06/02 03:09:35;;;;;;;6.37;3.08;;;;;;;11.24;58.99;99565.33;1698613;82;21588;-71
2021/06/02 03:12:36;;;;;;;5.40;3.40;;;;;;;11.20;59.12;99566.52;1694916;82;20989;-71
2021/06/02 03:15:41;;;;;;;8.45;3.25;;;;;;;11.18;59.35;99572.41;1720899;83;21048;-70
2021/06/02 03:18:37;;;;;;;9.50;3.50;;;;;;;11.19;59.40;99555.56;1699090;83;21067;-70
2021/06/02 03:21:33;;;;;;;5.60;3.40;;;;;;;11.31;59.18;99565.20;1726524;82;21600;-70
2021/06/02 03:24:30;;;;;;;5.10;3.30;;;;;;;11.28;59.09;99557.50;1718265;83;21041;-70
2021/06/02 03:27:01;;;;;;;7.60;3.70;;;;;;;11.24;59.29;99554.73;1707097;82;20997;-70
2021/06/02 03:29:56;;;;;;;6.45;3.17;;;;;;;11.21;59.42;99565.54;1690027;83;21521;-70
2021/06/02 03:32:50;;;;;;;9.43;3.40;;;;;;;11.22;59.42;99559.78;1689735;84;21552;-70
2021/06/02 03:35:27;;;;;;;7.78;3.50;;;;;;;11.25;59.65;99573.63;1662598;85;21183;-70
2021/06/02 03:38:09;;;;;;;5.40;3.30;;;;;;;11.40;59.42;99564.15;1716911;82;21033;-70
2021/06/02 03:41:09;;;;;;;7.42;3.25;;;;;;;11.38;59.55;99571.35;1707923;83;21052;-70
2021/06/02 03:43:43;;;;;;;7.65;3.50;;;;;;;11.34;59.45;99577.85;1716212;82;20989;-70
2021/06/02 03:46:59;;;;;;;5.33;3.45;;;;;;;11.31;59.65;99581.08;1718009;82;20994;-70
2021/06/02 03:50:02;;;;;;;4.70;3.22;;;;;;;11.29;59.68;99575.54;1697105;83;21060;-69
2021/06/02 03:52:56;;;;;;;4.20;3.30;;;;;;;11.35;59.77;99579.05;1650548;86;21040;-70
2021/06/02 03:56:11;;;;;;;10.32;3.50;;;;;;;11.42;59.57;99566.18;1674239;85;21032;-70
2021/06/02 03:59:07;;;;;;;7.72;3.45;;;;;;;11.41;59.54;99576.43;1676399;85;21065;-70
2021/06/02 04:01:52;;;;;;;6.00;3.50;;;;;;;11.36;59.51;99577.27;1704684;83;21036;-70
2021/06/02 04:04:40;;;;;;;7.03;3.30;;;;;;;11.33;59.79;99574.84;1695429;85;21013;-70
2021/06/02 04:07:11;;;;;;;6.20;3.30;;;;;;;11.34;59.97;99571.23;1681279;85;22146;-71
2021/06/02 04:10:03;;;;;;;5.83;3.35;;;;;;;11.43;59.84;99567.41;1689522;85;21100;-71
2021/06/02 04:12:52;;;;;;;5.95;3.60;;;;;;;11.46;59.92;99567.66;1694529;84;21051;-70
2021/06/02 04:15:18;;;;;;;7.45;3.67;;;;;;;11.45;59.90;99564.64;1689963;85;21503;-70
2021/06/02 04:17:49;;;;;;;6.20;3.37;;;;;;;11.42;59.89;99567.50;1712146;82;21052;-71
2021/06/02 04:20:17;;;;;;;8.50;3.50;;;;;;;11.38;59.99;99566.92;1695343;85;21040;-70
2021/06/02 04:22:48;;;;;;;6.55;3.15;;;;;;;11.40;60.13;99569.45;1661639;86;21064;-71
2021/06/02 04:25:18;;;;;;;7.83;3.17;;;;;;;11.56;59.94;99574.39;1695593;85;21065;-71
2021/06/02 04:27:47;;;;;;;6.30;3.37;;;;;;;11.62;59.69;99562.86;1718244;82;20957;-71
2021/06/02 04:30:19;;;;;;;7.80;3.10;;;;;;;11.61;59.77;99570.44;1706431;82;21588;-70
2021/06/02 04:32:47;;;;;;;4.83;3.12;;;;;;;11.63;59.84;99573.79;1661795;86;21547;-71
2021/06/02 04:35:18;;;;;;;8.50;3.72;;;;;;;11.68;59.62;99569.47;1699019;82;21108;-71
2021/06/02 04:37:47;;;;;;;5.05;3.25;;;;;;;11.73;59.42;99563.83;1707544;82;21025;-71
2021/06/02 04:40:15;;;;;;;5.30;3.30;;;;;;;11.78;59.61;99562.98;1724880;82;21551;-70
2021/06/02 04:42:41;;;;;;;4.72;3.12;;;;;;;11.93;59.33;99550.31;1707173;83;22108;-71
2021/06/02 04:45:12;;;;;;;7.67;3.50;;;;;;;11.95;59.21;99549.25;1715326;83;20949;-71
2021/06/02 04:47:40;;;;;;;7.35;3.35;;;;;;;11.96;59.44;99552.27;1716967;82;21568;-70
2021/06/02 04:50:28;;;;;;;6.83;3.52;;;;;;;12.00;59.35;99560.00;1721244;82;20961;-70
2021/06/02 04:53:14;;;;;;;7.25;3.20;;;;;;;12.02;59.01;99569.98;1722436;82;21044;-71
2021/06/02 04:56:19;;;;;;;5.08;3.17;;;;;;;12.01;58.90;99559.01;1713288;82;21000;-70
2021/06/02 04:59:07;;;;;;;5.35;3.20;;;;;;;11.96;59.04;99569.50;1681706;85;21071;-70
2021/06/02 05:02:00;;;;;;;6.58;3.42;;;;;;;12.07;59.26;99553.22;1712897;82;22059;-70
2021/06/02 05:05:24;;;;;;;7.20;3.50;;;;;;;12.09;59.06;99571.19;1705221;83;21008;-71
2021/06/02 05:08:24;;;;;;;;;;;;;;;12.05;59.17;99567.09;1713327;82;21543;-72
2021/06/02 05:11:01;;;;;;;6.28;3.50;;;;;;;11.99;59.55;99573.71;1716394;82;20138;-70
2021/06/02 05:14:01;;;;;;;8.78;3.67;;;;;;;11.91;59.83;99571.64;1721348;82;21001;-70
2021/06/02 05:17:01;;;;;;;7.00;3.10;;;;;;;11.88;59.60;99573.68;1696610;84;21123;-70
2021/06/02 05:20:19;;;;;;;7.25;3.12;;;;;;;11.85;59.79;99573.44;1696139;84;21108;-72
2021/06/02 05:23:24;;;;;;;7.45;3.30;;;;;;;12.00;59.41;99566.63;1669949;85;21092;-71
2021/06/02 05:26:25;;;;;;;4.70;3.30;;;;;;;12.03;59.43;99571.67;1737313;82;21477;-71
2021/06/02 05:29:34;;;;;;;7.78;3.90;;;;;;;12.03;59.53;99567.69;1725962;82;21005;-71
2021/06/02 05:32:35;;;;;;;6.05;3.20;;;;;;;12.04;59.53;99572.03;1725153;83;21025;-71
2021/06/02 05:35:28;;;;;;;6.08;3.15;;;;;;;12.06;59.17;99575.39;1725792;82;21642;-71
2021/06/02 05:38:27;;;;;;;4.20;3.17;;;;;;;12.09;59.61;99565.88;1725117;83;21032;-71
2021/06/02 05:41:30;;;;;;;8.40;3.80;;;;;;;12.28;59.46;99576.69;1725987;82;21076;-72
2021/06/02 05:44:32;;;;;;;4.22;3.22;;;;;;;12.39;58.73;99580.28;1708733;83;21527;-72
2021/06/02 05:47:33;;;;;;;8.20;3.70;;;;;;;12.51;58.64;99585.94;1658146;85;21537;-70
2021/06/02 05:50:33;;;;;;;5.90;3.00;;;;;;;12.65;58.58;99582.16;1725378;83;20985;-72
2021/06/02 05:53:38;;;;;;;7.78;3.00;;;;;;;12.78;58.36;99582.83;1725958;83;21576;-72
2021/06/02 05:56:38;;;;;;;5.97;3.30;;;;;;;12.92;57.47;99594.95;1726195;83;21084;-72
2021/06/02 05:59:45;;;;;;;4.72;3.22;;;;;;;12.98;57.55;99580.81;1727440;83;21068;-72
2021/06/02 06:02:52;;;;;;;5.92;2.98;;;;;;;13.04;57.80;99590.44;1725435;83;21112;-71
2021/06/02 06:06:04;;;;;;;7.50;3.10;;;;;;;13.13;57.30;99586.17;1717992;82;21073;-72
2021/06/02 06:09:19;;;;;;;6.17;3.72;;;;;;;13.17;57.02;99598.25;1714055;83;21085;-72
2021/06/02 06:12:32;;;;;;;6.00;3.12;;;;;;;13.20;56.94;99587.35;1718978;83;21017;-72
2021/06/02 06:15:27;;;;;;;6.90;3.05;;;;;;;13.20;57.04;99594.48;1710182;84;21084;-72
2021/06/02 06:18:25;;;;;;;7.75;3.08;;;;;;;13.20;57.33;99592.66;1713302;83;21068;-72
2021/06/02 06:21:20;;;;;;;7.53;3.20;;;;;;;13.20;56.69;99596.64;1689676;84;21125;-71
2021/06/02 06:23:51;;;;;;;4.83;2.87;;;;;;;13.16;56.23;99593.90;1670304;85;21069;-72
2021/06/02 06:26:36;;;;;;;5.62;3.02;;;;;;;13.12;56.37;99596.46;1733147;83;21024;-76
2021/06/02 06:29:27;;;;;;;6.08;3.20;;;;;;;13.08;56.44;99585.72;1730655;83;21504;-72
2021/06/02 06:31:53;;;;;;;9.75;3.00;;;;;;;13.05;56.80;99592.62;1689969;83;21533;-72
2021/06/02 06:34:22;;;;;;;6.85;3.20;;;;;;;13.02;57.24;99595.05;1700230;83;21089;-73
2021/06/02 06:36:50;;;;;;;5.87;3.30;;;;;;;13.05;57.32;99592.62;1704980;83;20997;-72
2021/06/02 06:39:34;;;;;;;7.08;3.17;;;;;;;13.10;57.44;99585.12;1718483;83;21044;-72
2021/06/02 06:42:03;;;;;;;5.62;3.10;;;;;;;13.16;56.60;99589.92;1710381;83;21033;-71
2021/06/02 06:44:29;;;;;;;6.10;2.90;;;;;;;13.16;56.64;99582.42;1697090;83;21497;-72
2021/06/02 06:46:56;;;;;;;6.00;3.02;;;;;;;13.18;56.96;99595.09;1688103;84;21532;-71
2021/06/02 06:49:25;;;;;;;4.30;2.80;;;;;;;13.22;56.69;99582.77;1687968;84;21072;-71
2021/06/02 06:51:53;;;;;;;6.50;2.70;;;;;;;13.26;56.45;99576.22;1688600;83;21029;-71
2021/06/02 06:54:22;;;;;;;7.30;3.58;;;;;;;13.33;56.26;99583.67;1709334;83;21051;-70
2021/06/02 06:56:50;;;;;;;5.08;3.10;;;;;;;13.35;56.43;99571.95;1683757;85;21049;-71
2021/06/02 06:59:19;;;;;;;7.60;2.80;;;;;;;13.41;56.23;99576.77;1704762;83;21524;-70
2021/06/02 07:01:46;;;;;;;11.12;3.33;;;;;;;13.47;55.98;99578.05;1709085;83;21784;-71
2021/06/02 07:04:12;;;;;;;4.45;3.00;;;;;;;13.56;56.15;99574.60;1725520;82;21520;-72
2021/06/02 07:06:43;;;;;;;6.30;3.20;;;;;;;13.82;56.22;99569.34;1714696;83;21520;-70
2021/06/02 07:09:09;;;;;;;6.53;3.22;;;;;;;13.82;56.22;99569.34;1695959;84;21079;-71
2021/06/02 07:11:40;;;;;;;9.35;2.90;;;;;;;13.98;55.38;99562.19;1668076;84;21040;-70
2021/06/02 07:14:09;;;;;;;4.30;2.70;;;;;;;14.07;54.23;99565.39;1636856;85;21130;-70
2021/06/02 07:16:38;;;;;;;13.78;4.50;;;;;;;14.09;53.92;99562.09;1678805;85;21069;-71
2021/06/02 07:19:07;;;;;;;10.38;3.77;;;;;;;14.09;53.95;99552.78;1680463;85;21004;-71
2021/06/02 07:21:38;;;;;;;6.65;3.20;;;;;;;14.09;54.27;99564.28;1665692;85;21624;-70
2021/06/02 07:24:05;;;;;;;8.68;2.90;;;;;;;14.16;54.67;99565.08;1678297;85;21073;-72
2021/06/02 07:26:32;;;;;;;7.90;3.58;;;;;;;14.21;54.27;99564.17;1696448;84;21016;-70
2021/06/02 07:28:58;;;;;;;7.60;3.37;;;;;;;14.18;53.64;99569.28;1713694;83;21060;-70
2021/06/02 07:31:26;;;;;;;7.35;2.98;;;;;;;14.18;53.64;99569.28;1690679;85;21066;-70
2021/06/02 07:33:52;;;;;;;5.47;2.77;;;;;;;14.14;54.11;99569.17;1691521;85;21097;-71
2021/06/02 07:36:19;;;;;;;6.70;2.87;;;;;;;14.14;54.11;99569.17;1668116;85;21094;-72
2021/06/02 07:38:47;;;;;;;6.75;3.05;;;;;;;14.35;54.23;99565.61;1691425;85;20989;-71
2021/06/02 07:41:15;;;;;;;5.72;3.00;;;;;;;14.35;54.23;99565.61;1696427;84;21082;-71
2021/06/02 07:43:41;;;;;;;8.90;3.00;;;;;;;14.45;53.77;99572.27;1696977;84;21010;-71
2021/06/02 07:46:07;;;;;;;6.20;2.98;;;;;;;14.58;53.31;99576.34;1697275;84;21073;-70
2021/06/02 07:48:35;;;;;;;5.58;2.90;;;;;;;14.58;53.31;99576.34;1696747;84;21035;-70
2021/06/02 07:51:01;;;;;;;6.80;3.02;;;;;;;14.65;53.17;99573.17;1705728;83;21020;-71
2021/06/02 07:53:28;;;;;;;7.22;3.12;;;;;;;14.69;53.16;99577.23;1698456;84;21573;-70
2021/06/02 07:55:54;;;;;;;8.18;2.83;;;;;;;14.75;52.95;99568.70;1696443;84;21078;-71
2021/06/02 07:58:21;;;;;;;6.60;3.00;;;;;;;14.81;53.10;99568.14;1695985;84;21098;-71
2021/06/02 08:00:49;;;;;;;7.65;3.22;;;;;;;14.87;53.38;99566.25;1702573;84;21091;-71
2021/06/02 08:03:17;;;;;;;7.17;2.72;;;;;;;15.03;53.76;99568.84;1694640;84;21049;-70
2021/06/02 08:05:44;;;;;;;5.08;2.92;;;;;;;15.17;52.82;99575.05;1691951;84;21058;-70
2021/06/02 08:08:10;;;;;;;6.08;2.55;;;;;;;15.22;52.41;99572.80;1694178;84;21042;-71
2021/06/02 08:10:37;;;;;;;7.33;2.70;;;;;;;15.20;52.12;99565.44;1690957;85;21574;-70
2021/06/02 08:13:04;;;;;;;6.60;2.47;;;;;;;15.18;52.37;99556.77;1690822;84;21610;-72
2021/06/02 08:15:39;;;;;;;4.62;2.50;;;;;;;15.19;51.86;99575.77;1691145;84;21502;-71
2021/06/02 08:18:05;;;;;;;4.17;2.62;;;;;;;15.26;51.59;99571.20;1691732;84;21032;-71
2021/06/02 08:20:32;;;;;;;10.90;2.70;;;;;;;15.29;50.78;99566.41;1691331;85;21035;-72
2021/06/02 08:22:59;;;;;;;5.65;2.55;;;;;;;15.32;51.00;99581.27;1693086;84;21075;-71
2021/06/02 08:25:28;;;;;;;4.17;2.40;;;;;;;15.34;50.50;99581.98;1743155;82;21065;-72
2021/06/02 08:27:54;;;;;;;5.10;2.85;;;;;;;15.34;51.15;99584.64;1727406;82;21068;-70
2021/06/02 08:30:21;;;;;;;7.15;2.65;;;;;;;15.40;50.74;99559.59;1713089;82;21028;-72
2021/06/02 08:32:47;;;;;;;4.10;2.72;;;;;;;15.45;50.41;99575.16;1715506;82;21563;-71
2021/06/02 08:35:16;;;;;;;3.45;2.60;;;;;;;15.46;49.84;99578.17;1724909;82;21595;-72
2021/06/02 08:37:42;;;;;;;6.67;2.92;;;;;;;15.40;50.25;99584.07;1726154;83;21108;-71
2021/06/02 08:40:09;;;;;;;8.68;2.75;;;;;;;15.38;50.89;99580.70;1717633;82;21053;-70
2021/06/02 08:42:37;;;;;;;9.15;2.85;;;;;;;15.38;51.26;99590.03;1695959;82;21013;-70
2021/06/02 08:45:05;;;;;;;10.15;2.80;;;;;;;15.39;50.40;99591.20;1711774;82;21029;-72
2021/06/02 08:47:31;;;;;;;5.47;2.52;;;;;;;15.36;50.03;99596.01;1712596;82;21024;-71
2021/06/02 08:49:58;;;;;;;5.42;2.70;;;;;;;15.29;49.61;99601.04;1731588;82;21017;-69
2021/06/02 08:52:24;;;;;;;5.72;2.37;;;;;;;15.21;49.63;99608.91;1700949;83;20957;-71
2021/06/02 08:54:55;;;;;;;5.05;2.42;;;;;;;15.13;50.25;99603.44;1709989;83;21100;-72
2021/06/02 08:57:21;;;;;;;7.00;2.65;;;;;;;15.14;50.19;99606.45;1711347;82;21529;-71
2021/06/02 08:59:47;;;;;;;6.00;2.72;;;;;;;15.14;50.03;99597.13;1726389;82;21127;-71
2021/06/02 09:02:16;;;;;;;7.37;2.60;;;;;;;15.15;50.63;99608.14;1726038;83;21493;-71
2021/06/02 09:04:42;;;;;;;8.00;2.92;;;;;;;15.19;50.60;99606.88;1713662;82;21096;-72
2021/06/02 09:07:08;;;;;;;9.70;4.20;;;;;;;15.23;49.93;99598.47;1735912;82;21504;-71
2021/06/02 09:09:36;;;;;;;8.65;3.80;;;;;;;15.23;50.49;99602.47;1726226;82;21547;-71
2021/06/02 09:12:08;;;;;;;6.62;3.15;;;;;;;15.26;51.63;99596.52;1718678;82;21056;-71
2021/06/02 09:14:38;;;;;;;7.05;2.83;;;;;;;15.34;51.49;99592.13;1725011;82;21080;-71
2021/06/02 09:17:11;;;;;;;9.93;2.87;;;;;;;15.38;50.79;99595.35;1702164;83;21524;-71
2021/06/02 09:19:45;;;;;;;9.53;2.67;;;;;;;15.35;50.59;99591.66;1715514;83;21703;-71
2021/06/02 09:22:15;;;;;;;6.70;2.35;;;;;;;15.36;50.45;99597.34;1737457;82;21051;-71
2021/06/02 09:24:59;;;;;;;7.50;2.60;;;;;;;15.31;50.59;99588.94;1742986;82;21047;-71
2021/06/02 09:27:50;;;;;;;5.22;2.50;;;;;;;15.29;50.44;99585.56;1743143;82;21027;-71
2021/06/02 09:30:29;;;;;;;8.58;2.60;;;;;;;15.24;50.57;99583.31;1743247;82;21000;-71
2021/06/02 09:32:59;;;;;;;6.95;2.67;;;;;;;15.20;50.89;99590.73;1743071;81;21047;-71
2021/06/02 09:35:43;;;;;;;4.22;2.70;;;;;;;15.22;51.35;99584.80;1743099;82;21032;-71
2021/06/02 09:38:24;;;;;;;5.87;2.70;;;;;;;15.30;50.49;99584.58;1743295;82;21024;-71
2021/06/02 09:40:56;;;;;;;9.25;2.60;;;;;;;15.32;50.52;99595.92;1742173;82;21567;-71
2021/06/02 09:43:32;;;;;;;4.22;2.70;;;;;;;15.36;50.09;99591.50;1743058;82;21048;-70
2021/06/02 09:46:13;;;;;;;5.42;2.77;;;;;;;15.39;50.43;99587.72;1743027;82;21091;-71
2021/06/02 09:48:50;;;;;;;7.67;2.65;;;;;;;15.44;50.47;99601.45;1743051;82;21035;-70
2021/06/02 09:51:38;;;;;;;7.95;2.70;;;;;;;15.43;51.06;99606.42;1743305;82;21564;-71
2021/06/02 09:54:07;;;;;;;5.25;2.87;;;;;;;15.45;50.99;99607.61;1743266;82;20988;-71
2021/06/02 09:56:38;;;;;;;3.52;2.50;;;;;;;15.42;50.39;99612.73;1743214;82;21004;-71
2021/06/02 09:59:08;;;;;;;7.62;2.40;;;;;;;15.38;50.28;99602.02;1743241;82;21000;-70
2021/06/02 10:01:54;;;;;;;8.60;2.60;;;;;;;15.31;50.61;99600.92;1743255;82;21539;-70
2021/06/02 10:04:38;;;;;;;5.87;2.58;;;;;;;15.27;51.19;99606.16;1738415;82;21146;-70
2021/06/02 10:07:06;;;;;;;5.00;2.50;;;;;;;15.23;50.99;99605.13;1733359;83;21056;-70
2021/06/02 10:09:35;;;;;;;8.90;2.95;;;;;;;15.21;50.86;99611.58;1733271;83;21540;-70
2021/06/02 10:12:05;;;;;;;5.90;2.45;;;;;;;15.21;50.80;99610.25;1733340;83;21032;-70
2021/06/02 10:14:33;;;;;;;4.08;2.50;;;;;;;15.21;51.06;99607.58;1733076;82;21040;-70
2021/06/02 10:18:39;;;;;;;6.72;2.40;;;;;;;15.27;50.73;99603.50;1801604;79;23023;-71
2021/06/02 10:21:09;;;;;;;5.90;2.83;;;;;;;15.26;50.31;99604.00;1762012;81;21500;-71
2021/06/02 10:23:45;;;;;;;4.53;2.85;;;;;;;15.29;50.58;99613.53;1761849;81;21009;-71
2021/06/02 10:26:16;;;;;;;14.33;3.47;;;;;;;15.31;50.43;99620.40;1761470;81;21504;-71
2021/06/02 10:28:46;;;;;;;8.45;2.72;;;;;;;15.34;50.27;99621.94;1761772;81;20961;-70
2021/06/02 10:31:14;;;;;;;6.40;3.22;;;;;;;15.36;50.22;99622.66;1761497;81;21028;-71
2021/06/02 10:33:41;;;;;;;4.25;2.22;;;;;;;15.39;50.46;99615.69;1754332;81;21033;-70
2021/06/02 10:36:08;;;;;;;8.18;2.90;;;;;;;15.42;50.57;99626.05;1743952;82;20980;-70
2021/06/02 10:38:48;;;;;;;7.85;2.72;;;;;;;15.48;50.84;99620.16;1723631;83;21517;-71
2021/06/02 10:41:32;;;;;;;6.83;2.60;;;;;;;15.55;50.74;99619.95;1725169;82;21547;-70
2021/06/02 10:44:06;;;;;;;6.50;2.60;;;;;;;15.63;50.61;99623.23;1737282;82;20992;-71
2021/06/02 10:46:35;;;;;;;8.95;2.47;;;;;;;15.67;49.65;99605.95;1727135;82;21587;-71
2021/06/02 10:49:02;;;;;;;18.80;3.77;;;;;;;15.70;49.56;99626.15;1725288;82;21044;-71
2021/06/02 10:51:40;;;;;;;5.45;2.47;;;;;;;15.73;49.41;99613.37;1750780;81;21004;-71
2021/06/02 10:54:20;;;;;;;5.65;2.47;;;;;;;15.78;49.10;99619.62;1726198;82;20997;-71
2021/06/02 10:57:03;;;;;;;5.55;2.58;;;;;;;15.81;48.63;99620.69;1746022;82;21000;-71
2021/06/02 10:59:46;;;;;;;4.50;2.83;;;;;;;15.85;48.79;99622.06;1723565;83;21063;-71
2021/06/02 11:02:19;;;;;;;6.50;2.75;;;;;;;15.89;49.02;99627.48;1723493;83;21020;-72
2021/06/02 11:05:04;;;;;;;5.20;2.72;;;;;;;15.96;48.83;99630.88;1716115;82;21048;-71
2021/06/02 11:07:36;;;;;;;6.33;2.40;;;;;;;16.00;48.48;99634.95;1745036;82;21040;-71
2021/06/02 11:10:13;;;;;;;5.70;2.30;;;;;;;16.01;48.47;99629.94;1724646;81;21091;-70
2021/06/02 11:12:57;;;;;;;4.80;2.50;;;;;;;16.05;48.35;99632.18;1739365;82;20996;-71
2021/06/02 11:15:36;;;;;;;9.90;3.20;;;;;;;16.10;47.08;99643.76;1740828;82;20953;-70
2021/06/02 11:18:14;;;;;;;6.22;2.35;;;;;;;16.12;47.28;99637.77;1744321;81;21567;-70
2021/06/02 11:20:45;;;;;;;3.75;2.58;;;;;;;16.12;47.37;99636.94;1738803;82;21156;-70
2021/06/02 11:23:17;;;;;;;4.67;2.50;;;;;;;16.10;47.51;99634.42;1740300;82;21485;-70
2021/06/02 11:25:46;;;;;;;5.17;2.30;;;;;;;16.13;47.35;99639.95;1740482;82;21021;-70
2021/06/02 11:28:40;;;;;;;3.37;2.33;;;;;;;16.14;47.36;99637.61;1710069;83;21040;-70
2021/06/02 11:31:26;;;;;;;6.17;2.27;;;;;;;16.16;47.59;99637.84;1728148;82;21049;-70
2021/06/02 11:33:55;;;;;;;7.12;2.62;;;;;;;16.18;48.09;99631.84;1737284;82;22012;-71
2021/06/02 11:36:21;;;;;;;5.50;2.67;;;;;;;16.21;48.18;99639.58;1717350;82;21085;-71
2021/06/02 11:38:47;;;;;;;7.35;2.70;;;;;;;16.27;48.53;99621.29;1674982;86;21046;-71
2021/06/02 11:41:14;;;;;;;6.25;2.60;;;;;;;16.32;47.74;99633.70;1675053;85;21690;-71
2021/06/02 11:43:41;;;;;;;5.75;2.37;;;;;;;16.36;47.55;99635.91;1674636;86;21115;-70
2021/06/02 11:46:09;;;;;;;9.30;2.83;;;;;;;16.39;48.09;99628.09;1674943;86;21537;-70
2021/06/02 11:48:36;;;;;;;6.78;2.50;;;;;;;16.43;48.04;99636.14;1725328;82;21009;-72
2021/06/02 11:51:05;;;;;;;7.37;2.72;;;;;;;16.48;47.69;99637.90;1712235;82;21513;-72
2021/06/02 11:53:41;;;;;;;4.65;2.60;;;;;;;16.54;47.54;99643.95;1662073;86;21066;-70
2021/06/02 11:56:07;;;;;;;6.15;2.58;;;;;;;16.60;48.14;99632.33;1710380;84;21532;-70
2021/06/02 11:58:34;;;;;;;5.65;2.83;;;;;;;16.66;47.71;99625.91;1719803;82;21009;-71
2021/06/02 12:01:00;;;;;;;5.20;2.70;;;;;;;16.70;47.65;99630.44;1711041;82;21049;-71
2021/06/02 12:03:28;;;;;;;10.32;2.92;;;;;;;16.73;47.53;99627.48;1731238;82;21020;-71
2021/06/02 12:05:57;;;;;;;6.83;2.80;;;;;;;16.76;46.95;99631.67;1739832;82;21528;-71
2021/06/02 12:08:27;;;;;;;4.78;2.60;;;;;;;16.78;46.68;99625.70;1739224;82;21521;-72
2021/06/02 12:10:57;;;;;;;6.08;2.58;;;;;;;16.78;47.00;99621.19;1728694;82;21540;-71
2021/06/02 12:13:28;;;;;;;8.35;2.90;;;;;;;16.78;46.82;99630.53;1727492;81;21041;-73
2021/06/02 12:16:00;;;;;;;5.47;2.40;;;;;;;16.83;46.37;99630.92;1715688;82;21040;-72
2021/06/02 12:18:40;;;;;;;7.35;2.50;;;;;;;16.88;46.71;99628.63;1738243;82;21020;-73
2021/06/02 12:21:26;;;;;;;6.17;2.70;;;;;;;16.93;46.01;99638.05;1724648;82;21624;-72
2021/06/02 12:24:04;;;;;;;9.05;2.50;;;;;;;16.96;45.94;99632.42;1744784;81;21040;-72
2021/06/02 12:26:42;;;;;;;9.13;2.58;;;;;;;16.97;46.44;99631.41;1723582;83;20992;-72
2021/06/02 12:29:15;;;;;;;4.37;2.62;;;;;;;17.03;46.10;99625.45;1723630;83;21068;-73
2021/06/02 12:31:53;;;;;;;4.93;2.60;;;;;;;17.06;46.14;99636.33;1697504;83;21127;-72